Time;durP1;ratioP1;P1;durP2;ratioP2;P2;SDS_P1;SDS_P2;PMS_P1;PMS_P2;Temp;Humidity;BMP_temperature;BMP_pressure;BME280_temperature;BME280_humidity;BME280_pressure;Samples;Min_cycle;Max_cycle;Signal;HPM_P1;HPM_P2
2022/01/26 00:06:25;;;;;;;131.60;42.22;;;3.40;99.90;;;;;;4893922;29;20071;-86
2022/01/26 00:08:51;;;;;;;121.97;40.42;;;2.90;99.90;;;;;;4894256;29;20130;-87
2022/01/26 00:11:16;;;;;;;122.05;40.85;;;2.80;99.90;;;;;;4894542;29;20082;-87
2022/01/26 00:13:42;;;;;;;136.52;42.30;;;2.80;99.90;;;;;;4894998;29;20044;-87
2022/01/26 00:16:15;;;;;;;146.70;44.42;;;2.80;99.90;;;;;;4894654;29;20083;-87
2022/01/26 00:18:40;;;;;;;143.10;44.42;;;3.60;99.90;;;;;;4893870;29;20567;-87
2022/01/26 00:21:14;;;;;;;137.23;44.00;;;2.80;99.90;;;;;;4895501;29;20044;-89
2022/01/26 00:26:24;;;;;;;137.68;42.03;;;2.80;99.90;;;;;;4894248;29;20088;-87
2022/01/26 00:38:33;;;;;;;140.20;43.70;;;2.80;99.90;;;;;;4913853;29;20059;-89
2022/01/26 00:39:52;;;;;;;134.82;41.55;;;2.70;99.90;;;;;;4914827;29;20047;-88
2022/01/26 00:42:18;;;;;;;149.85;45.15;;;2.70;99.90;;;;;;4913391;29;20047;-87
2022/01/26 00:44:47;;;;;;;145.55;43.25;;;2.70;99.90;;;;;;4912708;29;20055;-87
2022/01/26 00:47:14;;;;;;;140.27;42.60;;;2.70;99.90;;;;;;4913109;29;20066;-86
2022/01/26 00:49:40;;;;;;;136.82;42.95;;;2.70;99.90;;;;;;4913104;29;20060;-87
2022/01/26 00:52:11;;;;;;;154.57;45.70;;;2.70;99.90;;;;;;4896664;29;20054;-87
2022/01/26 00:54:36;;;;;;;142.70;44.55;;;2.70;99.90;;;;;;4897257;29;20032;-87
2022/01/26 00:57:02;;;;;;;147.98;46.38;;;2.70;99.90;;;;;;4897422;29;20098;-87
2022/01/26 00:59:28;;;;;;;136.95;42.90;;;2.70;99.90;;;;;;4896877;29;20080;-87
2022/01/26 01:01:55;;;;;;;144.43;43.40;;;2.70;99.90;;;;;;4912750;29;20094;-87
2022/01/26 01:04:21;;;;;;;146.25;43.25;;;2.70;99.90;;;;;;4896929;29;20407;-87
2022/01/26 01:06:53;;;;;;;139.63;44.28;;;2.70;99.90;;;;;;4896654;29;20130;-88
2022/01/26 01:09:21;;;;;;;144.93;43.85;;;2.70;99.90;;;;;;4897649;29;20050;-88
2022/01/26 01:11:46;;;;;;;135.35;43.72;;;2.70;99.90;;;;;;4896262;29;20499;-87
2022/01/26 01:14:12;;;;;;;134.40;43.85;;;2.70;99.90;;;;;;4897241;29;20094;-86
2022/01/26 01:16:38;;;;;;;144.75;43.75;;;2.70;99.90;;;;;;4912343;29;20111;-87
2022/01/26 01:19:08;;;;;;;142.35;44.13;;;2.70;99.90;;;;;;4893394;29;20052;-87
2022/01/26 01:27:05;;;;;;;142.75;43.38;;;2.70;99.90;;;;;;4893389;29;20095;-87
2022/01/26 01:29:42;;;;;;;130.80;41.70;;;2.70;99.90;;;;;;4880993;29;20052;-87
2022/01/26 01:32:26;;;;;;;138.68;43.15;;;2.70;99.90;;;;;;4882019;29;20394;-87
2022/01/26 01:34:52;;;;;;;132.98;41.67;;;2.70;99.90;;;;;;4882282;29;20048;-86
2022/01/26 01:37:18;;;;;;;135.75;42.08;;;2.70;99.90;;;;;;4897269;29;20040;-87
2022/01/26 01:39:43;;;;;;;125.70;40.30;;;2.70;99.90;;;;;;4881757;29;20476;-87
2022/01/26 01:42:09;;;;;;;139.10;42.88;;;2.70;99.90;;;;;;4897870;29;20056;-87
2022/01/26 01:44:36;;;;;;;131.38;41.95;;;2.70;99.90;;;;;;4897298;29;20669;-87
2022/01/26 01:47:05;;;;;;;132.05;43.17;;;2.70;99.90;;;;;;4880839;29;20111;-87
2022/01/26 01:49:31;;;;;;;136.90;44.85;;;2.70;99.90;;;;;;4896859;29;20048;-87
2022/01/26 01:52:04;;;;;;;125.75;41.17;;;2.70;99.90;;;;;;4896677;29;20060;-86
2022/01/26 01:54:29;;;;;;;136.93;42.28;;;2.70;99.90;;;;;;4896467;29;20052;-87
2022/01/26 01:56:58;;;;;;;123.82;41.35;;;2.70;99.90;;;;;;4907107;29;20521;-86
2022/01/26 01:59:27;;;;;;;135.05;43.45;;;2.70;99.90;;;;;;4900129;29;20056;-85
2022/01/26 02:01:54;;;;;;;132.25;41.22;;;2.70;99.90;;;;;;4915019;29;20515;-86
2022/01/26 02:04:19;;;;;;;124.20;40.58;;;3.20;99.90;;;;;;4915896;29;20040;-86
2022/01/26 02:06:45;;;;;;;131.27;42.47;;;2.60;99.90;;;;;;4900221;29;20069;-87
2022/01/26 02:09:11;;;;;;;131.18;42.20;;;2.70;99.90;;;;;;4899918;29;20094;-86
2022/01/26 02:11:50;;;;;;;134.73;41.67;;;2.60;99.90;;;;;;4899828;29;20044;-87
2022/01/26 02:14:23;;;;;;;128.75;41.97;;;2.60;99.90;;;;;;4899949;29;20503;-87
2022/01/26 02:17:00;;;;;;;130.95;44.63;;;2.60;99.90;;;;;;4915604;29;20154;-86
2022/01/26 02:52:28;;;;;;;142.93;43.85;;;2.60;99.90;;;;;;4895687;29;20059;-86
2022/01/26 02:55:08;;;;;;;135.32;45.13;;;2.60;99.90;;;;;;4896296;29;20048;-86
2022/01/26 02:57:48;;;;;;;130.40;43.03;;;2.60;99.90;;;;;;4895667;29;20048;-87
2022/01/26 03:02:48;;;;;;;138.13;44.60;;;2.60;99.90;;;;;;4896197;29;20112;-87
2022/01/26 03:05:16;;;;;;;141.25;44.00;;;2.60;99.90;;;;;;4895061;29;20509;-86
2022/01/26 03:07:52;;;;;;;137.02;45.22;;;2.60;99.90;;;;;;4896133;29;20062;-86
2022/01/26 03:10:24;;;;;;;130.43;44.05;;;2.60;99.90;;;;;;4896025;29;20040;-86
2022/01/26 03:12:55;;;;;;;126.32;43.63;;;2.60;99.90;;;;;;4894934;29;20067;-85
2022/01/26 03:15:27;;;;;;;139.10;46.30;;;2.60;99.90;;;;;;4895800;29;20044;-87
2022/01/26 03:18:15;;;;;;;122.90;42.42;;;2.60;99.90;;;;;;4894764;29;20104;-86
2022/01/26 03:20:41;;;;;;;125.43;43.47;;;2.60;99.90;;;;;;4895522;29;20048;-86
2022/01/26 03:28:42;;;;;;;136.45;44.15;;;2.60;99.90;;;;;;4895084;29;20605;-87
2022/01/26 03:36:18;;;;;;;128.23;43.72;;;2.60;99.90;;;;;;4895376;29;20047;-87
2022/01/26 03:38:49;;;;;;;132.27;44.33;;;2.60;99.90;;;;;;4895928;29;20425;-87
2022/01/26 03:41:38;;;;;;;120.45;39.47;;;2.60;99.90;;;;;;4895284;29;20056;-87
2022/01/26 03:44:05;;;;;;;129.30;43.08;;;2.50;99.90;;;;;;4895371;29;20052;-87
2022/01/26 03:46:30;;;;;;;130.85;45.00;;;2.50;99.90;;;;;;4894046;29;20052;-86
2022/01/26 03:48:56;;;;;;;129.93;44.20;;;2.50;99.90;;;;;;4894811;29;20056;-87
2022/01/26 03:51:22;;;;;;;123.90;42.55;;;2.50;99.90;;;;;;4894667;29;20055;-86
2022/01/26 03:53:48;;;;;;;127.50;40.28;;;2.50;99.90;;;;;;4893535;29;20139;-86
2022/01/26 03:56:14;;;;;;;111.63;41.20;;;2.50;99.90;;;;;;4895619;29;20135;-86
2022/01/26 03:58:40;;;;;;;123.97;41.30;;;2.50;99.90;;;;;;4894652;29;20492;-86
2022/01/26 04:01:05;;;;;;;117.15;40.25;;;2.50;99.90;;;;;;4894913;29;20048;-86
2022/01/26 04:03:31;;;;;;;114.25;39.53;;;2.50;99.90;;;;;;4895125;29;20096;-86
2022/01/26 04:05:57;;;;;;;107.28;38.88;;;2.50;99.90;;;;;;4894549;29;20103;-87
2022/01/26 04:08:28;;;;;;;108.38;37.88;;;2.50;99.90;;;;;;4909854;29;20052;-86
2022/01/26 04:11:18;;;;;;;110.13;38.35;;;2.50;99.90;;;;;;4894900;29;20060;-87
2022/01/26 04:13:44;;;;;;;100.30;37.13;;;2.50;99.90;;;;;;4895057;29;20048;-86
2022/01/26 04:16:10;;;;;;;109.93;39.33;;;2.50;99.90;;;;;;4894791;29;20138;-87
2022/01/26 04:18:38;;;;;;;110.95;39.03;;;2.50;99.90;;;;;;4894240;29;20430;-86
2022/01/26 04:21:18;;;;;;;105.60;37.03;;;2.50;99.90;;;;;;4894076;29;20609;-87
2022/01/26 04:26:12;;;;;;;115.25;39.60;;;2.50;99.90;;;;;;4894630;29;20581;-86
2022/01/26 04:28:44;;;;;;;102.47;36.78;;;2.50;99.90;;;;;;4894122;29;20044;-87
2022/01/26 04:31:10;;;;;;;104.28;37.03;;;2.50;99.90;;;;;;4894574;29;20056;-87
2022/01/26 04:33:37;;;;;;;103.65;36.45;;;2.50;99.90;;;;;;4894313;29;20045;-87
2022/01/26 04:36:06;;;;;;;96.82;36.95;;;2.50;99.90;;;;;;4893497;29;20151;-87
2022/01/26 04:38:40;;;;;;;93.82;35.95;;;2.50;99.90;;;;;;4894894;29;20044;-87
2022/01/26 04:43:44;;;;;;;91.90;34.72;;;2.50;99.90;;;;;;4893750;29;20059;-87
2022/01/26 04:46:10;;;;;;;88.68;34.03;;;2.50;99.90;;;;;;4894706;29;20052;-87
2022/01/26 04:48:35;;;;;;;91.38;34.72;;;2.40;99.90;;;;;;4878556;29;20497;-88
2022/01/26 04:51:01;;;;;;;95.15;35.05;;;2.40;99.90;;;;;;4893484;29;20048;-87
2022/01/26 04:53:27;;;;;;;96.32;35.38;;;2.40;99.90;;;;;;4894413;29;20086;-87
2022/01/26 04:55:52;;;;;;;91.00;35.80;;;2.40;99.90;;;;;;4894770;29;20087;-87
2022/01/26 04:58:18;;;;;;;92.82;34.92;;;2.40;99.90;;;;;;4893713;29;20131;-88
2022/01/26 05:00:44;;;;;;;92.93;34.78;;;2.40;99.90;;;;;;4894814;29;20052;-88
2022/01/26 05:03:10;;;;;;;91.60;34.95;;;2.40;99.90;;;;;;4909939;29;20507;-88
2022/01/26 05:05:36;;;;;;;94.18;34.42;;;2.40;99.90;;;;;;4893684;29;20457;-88
2022/01/26 05:08:02;;;;;;;88.70;33.85;;;2.40;99.90;;;;;;4894112;29;20147;-88
2022/01/26 05:10:28;;;;;;;91.07;34.10;;;2.40;99.90;;;;;;4893959;29;20071;-87
2022/01/26 05:12:54;;;;;;;99.43;34.15;;;2.40;99.90;;;;;;4894087;29;20047;-87
2022/01/26 05:15:22;;;;;;;89.53;33.45;;;2.40;99.90;;;;;;4894187;29;20115;-87
2022/01/26 05:17:48;;;;;;;90.15;33.70;;;2.40;99.90;;;;;;4893227;29;20040;-88
2022/01/26 05:20:14;;;;;;;97.70;34.85;;;2.40;99.90;;;;;;4893769;29;20500;-87
2022/01/26 05:22:43;;;;;;;88.57;33.97;;;2.40;99.90;;;;;;4894347;29;20111;-87
2022/01/26 05:25:09;;;;;;;98.30;34.90;;;2.40;99.90;;;;;;4893425;29;20127;-88
2022/01/26 05:27:35;;;;;;;96.25;33.80;;;2.40;99.90;;;;;;4894408;29;20148;-88
2022/01/26 05:30:01;;;;;;;96.88;34.53;;;2.40;99.90;;;;;;4893848;29;20162;-88
2022/01/26 05:32:27;;;;;;;95.30;34.83;;;2.40;99.90;;;;;;4892798;29;20052;-87
2022/01/26 05:34:53;;;;;;;92.15;33.90;;;2.40;99.90;;;;;;4894654;29;20044;-87
2022/01/26 05:37:19;;;;;;;90.70;33.83;;;2.40;99.90;;;;;;4893018;29;20489;-86
2022/01/26 05:39:44;;;;;;;82.85;32.53;;;2.40;99.90;;;;;;4893178;29;20496;-87
2022/01/26 05:42:10;;;;;;;92.60;32.95;;;2.40;99.90;;;;;;4893941;29;20079;-88
2022/01/26 05:44:36;;;;;;;92.20;33.47;;;2.30;99.90;;;;;;4893805;29;20059;-87
2022/01/26 05:47:05;;;;;;;89.07;34.47;;;2.40;99.90;;;;;;4892524;29;20064;-86
2022/01/26 05:49:30;;;;;;;82.75;31.88;;;2.30;99.90;;;;;;4892980;29;20060;-86
2022/01/26 05:51:56;;;;;;;92.25;31.98;;;2.30;99.90;;;;;;4893253;29;20040;-87
2022/01/26 05:54:22;;;;;;;89.15;33.00;;;2.30;99.90;;;;;;4892411;29;20099;-86
2022/01/26 05:56:48;;;;;;;87.43;31.75;;;2.30;99.90;;;;;;4893503;29;20055;-87
2022/01/26 05:59:17;;;;;;;88.00;32.95;;;2.30;99.90;;;;;;4893908;29;20048;-87
2022/01/26 06:01:42;;;;;;;82.47;30.80;;;2.30;99.90;;;;;;4892647;29;20048;-88
2022/01/26 06:04:08;;;;;;;83.93;32.47;;;2.30;99.90;;;;;;4894205;29;20056;-87
2022/01/26 06:06:34;;;;;;;79.05;32.10;;;2.30;99.90;;;;;;4891630;29;20044;-86
2022/01/26 06:08:59;;;;;;;83.97;31.65;;;2.30;99.90;;;;;;4893550;29;20052;-87
2022/01/26 06:11:25;;;;;;;85.13;31.60;;;2.80;99.90;;;;;;4893026;29;20051;-86
2022/01/26 06:13:51;;;;;;;84.10;30.77;;;2.30;99.90;;;;;;4892235;29;20040;-86
2022/01/26 06:16:16;;;;;;;87.78;32.08;;;2.30;99.90;;;;;;4895202;29;20055;-87
2022/01/26 06:18:45;;;;;;;88.07;31.65;;;2.30;99.90;;;;;;4896328;29;20300;-88
2022/01/26 06:21:10;;;;;;;83.75;30.70;;;2.30;99.90;;;;;;4896633;29;20044;-87
2022/01/26 06:23:36;;;;;;;78.30;29.95;;;2.30;99.90;;;;;;4897317;29;20127;-87
2022/01/26 06:26:02;;;;;;;87.97;32.13;;;2.30;99.90;;;;;;4913475;29;20051;-87
2022/01/26 06:28:28;;;;;;;85.10;32.30;;;2.30;99.90;;;;;;4911947;29;20138;-87
2022/01/26 06:31:00;;;;;;;83.63;31.08;;;2.30;99.90;;;;;;4896837;29;20067;-88
2022/01/26 06:33:27;;;;;;;84.25;31.77;;;2.30;99.90;;;;;;4902325;29;20479;-87
2022/01/26 06:35:53;;;;;;;88.57;30.98;;;2.30;99.90;;;;;;4922587;29;20091;-88
2022/01/26 06:38:18;;;;;;;90.70;33.33;;;2.30;99.90;;;;;;4909553;29;20053;-87
2022/01/26 06:40:44;;;;;;;78.45;30.83;;;2.30;99.90;;;;;;4924589;29;20047;-87
2022/01/26 06:43:14;;;;;;;79.30;32.33;;;2.30;99.90;;;;;;4910417;29;20035;-87
2022/01/26 06:45:47;;;;;;;85.88;33.53;;;2.30;99.90;;;;;;4906161;29;20471;-88
2022/01/26 06:48:39;;;;;;;88.57;33.78;;;2.30;99.90;;;;;;4909977;29;20110;-87
2022/01/26 06:51:00;;;;;;;79.40;32.88;;;2.40;99.90;;;;;;4920886;29;20051;-88
2022/01/26 06:53:26;;;;;;;83.07;32.38;;;2.30;99.90;;;;;;4908755;29;20043;-90
2022/01/26 06:55:52;;;;;;;86.25;32.88;;;2.30;99.90;;;;;;4926131;29;20032;-89
2022/01/26 06:58:18;;;;;;;83.90;33.97;;;2.30;99.90;;;;;;4924105;29;20035;-88
2022/01/26 07:00:44;;;;;;;82.88;33.65;;;2.30;99.90;;;;;;4927769;29;20061;-87
2022/01/26 07:03:10;;;;;;;87.63;33.63;;;2.30;99.90;;;;;;4924597;29;20511;-87
2022/01/26 07:05:35;;;;;;;90.65;33.47;;;2.30;99.90;;;;;;4906640;29;20043;-87
2022/01/26 07:08:02;;;;;;;86.68;34.85;;;2.30;99.90;;;;;;4907686;29;20063;-87
2022/01/26 07:10:28;;;;;;;87.68;33.88;;;2.30;99.90;;;;;;4909676;29;20047;-88
2022/01/26 07:12:54;;;;;;;96.55;36.55;;;2.30;99.90;;;;;;4924001;29;20280;-88
2022/01/26 07:21:23;;;;;;;100.22;34.45;;;2.30;99.90;;;;;;4922290;29;20079;-90
2022/01/26 07:23:48;;;;;;;99.47;37.20;;;2.30;99.90;;;;;;4925039;29;20063;-89
2022/01/26 07:26:14;;;;;;;90.13;36.65;;;2.30;99.90;;;;;;4922619;28;20039;-90
2022/01/26 07:28:40;;;;;;;107.40;37.15;;;2.30;99.90;;;;;;4924018;29;20074;-90
2022/01/26 07:31:07;;;;;;;99.13;36.25;;;2.30;99.90;;;;;;4924796;29;20071;-88
2022/01/26 07:33:33;;;;;;;106.15;37.97;;;2.30;99.90;;;;;;4906793;29;20036;-88
2022/01/26 07:36:00;;;;;;;95.15;36.92;;;2.40;99.90;;;;;;4924529;29;20047;-88
2022/01/26 07:38:26;;;;;;;92.13;34.97;;;2.70;99.90;;;;;;4907365;29;20127;-88
2022/01/26 07:40:52;;;;;;;104.38;37.58;;;2.30;99.90;;;;;;4923049;29;20052;-87
2022/01/26 07:43:18;;;;;;;109.30;38.40;;;2.40;99.90;;;;;;4922570;29;20129;-87
2022/01/26 07:45:44;;;;;;;104.65;39.95;;;2.40;99.90;;;;;;4923850;29;20039;-90
2022/01/26 07:48:10;;;;;;;109.85;41.80;;;2.40;99.90;;;;;;4924699;29;20400;-86
2022/01/26 07:50:36;;;;;;;99.68;36.80;;;2.40;99.90;;;;;;4919257;29;20051;-87
2022/01/26 07:53:02;;;;;;;103.63;39.08;;;2.40;99.90;;;;;;4912004;29;20050;-86
2022/01/26 07:55:30;;;;;;;102.65;38.90;;;2.40;99.90;;;;;;4912681;29;20043;-88
2022/01/26 07:57:56;;;;;;;96.50;39.15;;;2.40;99.90;;;;;;4896130;29;20619;-90
2022/01/26 08:00:24;;;;;;;103.10;41.00;;;2.40;99.90;;;;;;4880270;29;20110;-90
2022/01/26 08:02:50;;;;;;;104.38;40.15;;;2.40;99.90;;;;;;4895992;29;20139;-89
2022/01/26 08:05:17;;;;;;;101.60;41.75;;;2.50;99.90;;;;;;4895070;29;20048;-88
2022/01/26 08:07:44;;;;;;;101.18;39.50;;;2.50;99.90;;;;;;4904846;29;20055;-87
2022/01/26 08:10:11;;;;;;;111.18;42.45;;;2.50;99.90;;;;;;4895812;29;20389;-87
2022/01/26 08:12:38;;;;;;;103.72;43.15;;;2.50;99.90;;;;;;4895639;29;20055;-89
2022/01/26 08:15:05;;;;;;;106.28;42.85;;;2.60;99.90;;;;;;4895476;29;20063;-89
2022/01/26 08:17:31;;;;;;;113.95;42.20;;;2.50;99.90;;;;;;4896195;29;20052;-91
2022/01/26 08:19:57;;;;;;;110.97;42.95;;;2.50;99.90;;;;;;4896525;29;20063;-92
2022/01/26 08:22:25;;;;;;;108.50;43.17;;;2.50;99.90;;;;;;4895332;29;20040;-89
2022/01/26 08:24:51;;;;;;;109.90;42.53;;;2.60;99.90;;;;;;4896039;29;20051;-88
2022/01/26 08:27:18;;;;;;;110.57;42.60;;;2.60;99.90;;;;;;4896933;29;20052;-88
2022/01/26 08:29:48;;;;;;;119.38;43.08;;;2.70;99.90;;;;;;4894844;29;20060;-89
2022/01/26 08:32:14;;;;;;;103.25;42.20;;;3.30;99.90;;;;;;4895805;29;20052;-91
2022/01/26 08:34:41;;;;;;;111.82;44.88;;;2.60;99.90;;;;;;4895796;29;20186;-91
2022/01/26 08:37:06;;;;;;;110.65;42.85;;;3.20;99.90;;;;;;4895997;29;20051;-92
2022/01/26 08:39:33;;;;;;;110.57;43.63;;;2.60;99.90;;;;;;4896016;29;20112;-88
2022/01/26 08:42:00;;;;;;;108.00;43.50;;;2.60;99.90;;;;;;4893864;29;20377;-89
2022/01/26 08:44:27;;;;;;;122.05;46.92;;;3.20;99.90;;;;;;4895920;29;20048;-90
2022/01/26 08:46:53;;;;;;;120.15;46.28;;;2.70;99.90;;;;;;4895405;29;20058;-88
2022/01/26 08:49:19;;;;;;;122.60;46.45;;;2.70;99.90;;;;;;4899897;29;20040;-88
2022/01/26 08:51:48;;;;;;;118.30;48.60;;;2.70;99.90;;;;;;4879836;29;20047;-87
2022/01/26 08:54:14;;;;;;;117.40;45.83;;;2.70;99.90;;;;;;4895780;29;20104;-89
2022/01/26 08:56:40;;;;;;;124.45;47.78;;;2.70;99.90;;;;;;4877988;29;20063;-88
2022/01/26 08:59:06;;;;;;;125.63;47.92;;;2.80;99.90;;;;;;4895577;29;20382;-87
2022/01/26 09:01:31;;;;;;;122.32;46.30;;;2.70;99.90;;;;;;4895142;29;20056;-88
2022/01/26 09:03:57;;;;;;;126.22;46.78;;;2.80;99.90;;;;;;4893162;29;20416;-86
2022/01/26 09:06:23;;;;;;;120.78;46.90;;;2.80;99.90;;;;;;4893873;29;20048;-88
2022/01/26 09:08:58;;;;;;;129.80;49.13;;;2.90;99.90;;;;;;4883759;29;20083;-91
2022/01/26 09:11:24;;;;;;;118.55;47.05;;;2.80;99.90;;;;;;4879077;29;20052;-89
2022/01/26 09:13:56;;;;;;;128.30;48.60;;;2.90;99.90;;;;;;4895329;29;20043;-90
2022/01/26 09:16:24;;;;;;;129.63;48.33;;;2.90;99.90;;;;;;4895110;29;20056;-88
2022/01/26 09:18:53;;;;;;;127.10;48.42;;;3.70;99.90;;;;;;4899023;29;20158;-87
2022/01/26 09:21:21;;;;;;;126.47;47.88;;;2.90;99.90;;;;;;4919516;29;20050;-87
2022/01/26 09:23:47;;;;;;;117.68;47.47;;;2.90;99.90;;;;;;4920920;29;20562;-88
2022/01/26 09:26:14;;;;;;;120.30;49.30;;;3.00;99.90;;;;;;4908512;29;20529;-89
2022/01/26 09:28:40;;;;;;;117.10;47.70;;;3.00;99.90;;;;;;4907967;29;20059;-88
2022/01/26 09:31:06;;;;;;;118.57;48.92;;;3.00;99.90;;;;;;4919003;29;20527;-89
2022/01/26 09:33:31;;;;;;;114.78;47.28;;;3.70;99.90;;;;;;4903945;29;20118;-89
2022/01/26 09:35:57;;;;;;;120.50;48.72;;;3.00;99.90;;;;;;4905772;29;20145;-90
2022/01/26 09:38:23;;;;;;;118.90;49.92;;;3.10;99.90;;;;;;4924027;29;20050;-88
2022/01/26 09:40:49;;;;;;;118.10;49.75;;;3.10;99.90;;;;;;4914962;29;20130;-87
2022/01/26 09:43:17;;;;;;;121.68;48.05;;;3.10;99.90;;;;;;4886285;29;20040;-89
2022/01/26 09:45:43;;;;;;;128.82;50.42;;;3.40;99.90;;;;;;4879559;29;20527;-90
2022/01/26 09:48:10;;;;;;;125.72;49.80;;;3.20;99.90;;;;;;4895337;29;20049;-90
2022/01/26 09:50:36;;;;;;;125.15;50.10;;;3.20;99.90;;;;;;4897521;29;20511;-89
2022/01/26 09:53:03;;;;;;;116.18;47.13;;;3.20;99.90;;;;;;4898074;29;20044;-93
2022/01/26 09:55:30;;;;;;;108.20;48.38;;;3.20;99.90;;;;;;4901163;29;20470;-91
2022/01/26 09:58:02;;;;;;;120.45;47.28;;;3.30;99.90;;;;;;4937179;29;20098;-88
2022/01/26 10:00:29;;;;;;;112.93;46.75;;;3.30;99.90;;;;;;4935319;29;20051;-86
2022/01/26 10:02:57;;;;;;;111.07;46.50;;;3.30;99.90;;;;;;4935037;29;20090;-90
2022/01/26 10:05:24;;;;;;;106.95;45.80;;;3.30;99.90;;;;;;4934907;29;20116;-85
2022/01/26 10:08:54;;;;;;;109.15;47.60;;;4.00;99.90;;;;;;4892116;29;20116;-85
2022/01/26 10:19:02;;;;;;;92.40;42.13;;;3.50;99.90;;;;;;4913200;29;20059;-86
2022/01/26 10:21:27;;;;;;;94.63;41.92;;;3.60;99.90;;;;;;4896310;29;20464;-88
2022/01/26 10:23:55;;;;;;;90.85;41.17;;;3.60;99.90;;;;;;4897826;29;20063;-88
2022/01/26 10:26:21;;;;;;;96.63;42.28;;;3.60;99.90;;;;;;4881409;29;20129;-87
2022/01/26 10:28:52;;;;;;;103.85;43.08;;;3.70;99.90;;;;;;4896695;29;20052;-87
2022/01/26 10:31:20;;;;;;;101.63;42.83;;;3.60;99.90;;;;;;4898884;29;20096;-86
2022/01/26 10:34:01;;;;;;;88.50;40.42;;;3.70;99.90;;;;;;4882681;29;20127;-87
2022/01/26 10:36:38;;;;;;;92.53;40.75;;;3.70;99.90;;;;;;4896731;29;20048;-85
2022/01/26 10:39:11;;;;;;;93.18;41.00;;;3.70;99.90;;;;;;4908556;29;20427;-87
2022/01/26 10:41:40;;;;;;;96.80;41.50;;;3.80;99.90;;;;;;4920566;29;20043;-86
2022/01/26 10:44:06;;;;;;;84.63;37.33;;;3.70;99.90;;;;;;4910386;29;20058;-86
2022/01/26 10:46:39;;;;;;;84.43;36.53;;;3.80;99.90;;;;;;4907114;29;20051;-85
2022/01/26 10:49:15;;;;;;;84.22;37.63;;;3.80;99.90;;;;;;4901383;29;20510;-86
2022/01/26 10:54:37;;;;;;;84.70;37.47;;;3.90;99.90;;;;;;4901473;29;20080;-85
2022/01/26 10:57:08;;;;;;;91.60;38.25;;;3.80;99.90;;;;;;4899627;29;20056;-85
2022/01/26 10:59:36;;;;;;;98.47;37.42;;;3.90;99.90;;;;;;4885297;29;20211;-86
2022/01/26 11:02:05;;;;;;;95.80;38.33;;;3.90;99.90;;;;;;4900488;29;20180;-86
2022/01/26 11:04:34;;;;;;;80.70;35.50;;;3.90;99.90;;;;;;4902875;29;20052;-87
2022/01/26 11:07:02;;;;;;;83.97;37.97;;;3.90;99.90;;;;;;4902905;29;20048;-88
2022/01/26 11:09:31;;;;;;;90.78;36.80;;;3.90;99.90;;;;;;4862672;29;20045;-87
2022/01/26 11:12:00;;;;;;;91.35;39.15;;;3.90;99.90;;;;;;4877223;29;20621;-87
2022/01/26 11:14:36;;;;;;;85.65;36.95;;;3.90;99.90;;;;;;4893608;29;20048;-90
2022/01/26 11:17:02;;;;;;;84.88;36.75;;;3.90;99.90;;;;;;4876966;29;20048;-88
2022/01/26 11:19:40;;;;;;;78.47;34.65;;;3.90;99.90;;;;;;4876828;29;20044;-86
2022/01/26 11:22:07;;;;;;;88.57;36.55;;;3.90;99.90;;;;;;4876833;29;20499;-86
2022/01/26 11:24:47;;;;;;;90.82;35.47;;;3.90;99.90;;;;;;4880795;29;20055;-86
2022/01/26 11:27:15;;;;;;;84.47;36.85;;;3.90;99.90;;;;;;4884769;29;20499;-86
2022/01/26 11:29:46;;;;;;;96.10;37.70;;;3.80;99.90;;;;;;4900398;29;20040;-86
2022/01/26 11:32:32;;;;;;;89.63;36.33;;;4.30;99.90;;;;;;4892969;29;20053;-86
2022/01/26 11:34:58;;;;;;;101.47;37.95;;;3.90;99.90;;;;;;4888155;29;20076;-85
2022/01/26 11:37:38;;;;;;;99.80;37.92;;;3.90;99.90;;;;;;4872654;29;20837;-88
2022/01/26 11:45:23;;;;;;;87.97;35.15;;;4.10;99.90;;;;;;4873005;29;20064;-87
2022/01/26 11:48:09;;;;;;;103.35;35.92;;;4.10;99.90;;;;;;4884689;29;20147;-87
2022/01/26 11:50:38;;;;;;;91.03;36.83;;;4.10;99.90;;;;;;4885980;29;20059;-84
2022/01/26 11:53:07;;;;;;;102.72;37.70;;;4.20;99.90;;;;;;4902487;29;20082;-85
2022/01/26 11:55:34;;;;;;;91.65;36.63;;;4.20;99.90;;;;;;4877494;29;20108;-84
2022/01/26 11:58:07;;;;;;;84.95;35.72;;;4.20;99.90;;;;;;4890186;29;20087;-84
2022/01/26 12:00:50;;;;;;;90.50;38.40;;;4.20;99.90;;;;;;4873315;29;20147;-84
2022/01/26 12:03:23;;;;;;;99.82;36.78;;;4.20;99.90;;;;;;4890211;29;20044;-84
2022/01/26 12:05:52;;;;;;;86.25;37.78;;;4.10;99.90;;;;;;4904975;29;20051;-83
2022/01/26 12:08:27;;;;;;;87.72;36.63;;;4.10;99.90;;;;;;4897338;29;20048;-83
2022/01/26 12:10:53;;;;;;;94.97;36.47;;;4.10;99.90;;;;;;4900232;29;20135;-84
2022/01/26 12:13:25;;;;;;;95.63;35.90;;;4.10;99.90;;;;;;4889901;29;20132;-84
2022/01/26 12:15:55;;;;;;;95.55;36.38;;;4.10;99.90;;;;;;4891888;29;20459;-84
2022/01/26 12:18:36;;;;;;;102.53;38.17;;;4.10;99.90;;;;;;4875457;29;20135;-84
2022/01/26 12:35:40;;;;;;;95.72;38.65;;;4.20;99.90;;;;;;4909229;29;20102;-87
2022/01/26 12:38:15;;;;;;;88.32;36.85;;;4.50;99.90;;;;;;4895224;29;20056;-87
2022/01/26 12:43:47;;;;;;;101.00;36.78;;;4.20;99.90;;;;;;4910116;29;20052;-86
2022/01/26 12:46:20;;;;;;;98.03;38.08;;;4.10;99.90;;;;;;4891373;29;20055;-87
2022/01/26 12:48:50;;;;;;;97.60;37.75;;;4.20;99.90;;;;;;4890338;29;20158;-88
2022/01/26 12:51:17;;;;;;;91.07;38.90;;;4.20;99.90;;;;;;4892955;29;20489;-96
2022/01/26 12:53:43;;;;;;;89.72;36.15;;;4.20;99.90;;;;;;4895484;29;20092;-95
2022/01/26 12:56:13;;;;;;;98.80;38.10;;;4.20;99.90;;;;;;4892937;29;20052;-95
2022/01/26 12:58:41;;;;;;;94.75;36.83;;;4.10;99.90;;;;;;4893250;29;20037;-95
2022/01/26 13:01:09;;;;;;;95.28;37.85;;;4.20;99.90;;;;;;4894793;29;20044;-95
2022/01/26 13:03:38;;;;;;;104.03;38.38;;;4.20;99.90;;;;;;4909906;29;20057;-85
2022/01/26 13:06:07;;;;;;;91.20;36.20;;;4.20;99.90;;;;;;4894192;29;20572;-87
2022/01/26 13:08:40;;;;;;;101.88;38.40;;;4.30;99.90;;;;;;4891806;29;20115;-88
2022/01/26 13:11:06;;;;;;;87.88;37.55;;;4.30;99.90;;;;;;4895072;29;20373;-93
2022/01/26 13:13:34;;;;;;;107.40;40.58;;;4.30;99.90;;;;;;4903933;29;20071;-96
2022/01/26 13:16:10;;;;;;;93.68;37.35;;;4.70;99.90;;;;;;4901784;29;20063;-94
2022/01/26 13:23:49;;;;;;;80.97;34.73;;;4.50;99.90;;;;;;4919923;29;20131;-93
2022/01/26 13:26:33;;;;;;;93.90;37.10;;;4.50;99.90;;;;;;4884359;29;20132;-90
2022/01/26 13:29:18;;;;;;;;;;;4.50;99.90;;;;;;4906521;29;20118;-93
2022/01/26 13:34:57;;;;;;;94.20;36.95;;;4.60;99.90;;;;;;4918959;29;20143;-90
2022/01/26 13:37:41;;;;;;;84.40;34.63;;;4.80;99.90;;;;;;4920837;29;20504;-91
2022/01/26 14:00:11;;;;;;;81.20;33.28;;;4.70;99.90;;;;;;4934396;23;20083;-94
2022/01/26 14:02:38;;;;;;;83.53;34.45;;;4.80;99.90;;;;;;4889495;29;20051;-94
2022/01/26 14:05:05;;;;;;;88.90;34.75;;;5.60;99.90;;;;;;4889345;29;20047;-94
2022/01/26 14:07:31;;;;;;;73.85;32.65;;;4.70;99.90;;;;;;4886895;29;20135;-95
2022/01/26 14:09:57;;;;;;;85.25;32.75;;;5.90;99.90;;;;;;4880697;29;20048;-94
2022/01/26 14:12:28;;;;;;;73.38;31.88;;;4.80;99.90;;;;;;4879319;29;20052;-95
2022/01/26 14:14:57;;;;;;;79.43;32.25;;;5.90;99.90;;;;;;4880513;29;20047;-95
2022/01/26 14:17:35;;;;;;;81.30;34.42;;;5.70;99.90;;;;;;4879705;29;20091;-95
2022/01/26 14:20:15;;;;;;;71.20;30.38;;;4.80;99.90;;;;;;4881515;29;20036;-95
2022/01/26 14:23:02;;;;;;;70.28;31.92;;;4.80;99.90;;;;;;4880068;29;20048;-95
2022/01/26 14:25:30;;;;;;;71.05;32.28;;;4.90;99.90;;;;;;4896015;29;20059;-95
2022/01/26 14:28:04;;;;;;;73.57;32.28;;;4.80;99.90;;;;;;4879624;29;20079;-95
2022/01/26 14:33:26;;;;;;;78.97;32.38;;;5.40;99.90;;;;;;4896315;29;20472;-94
2022/01/26 14:50:57;;;;;;;74.40;32.60;;;5.80;99.90;;;;;;4898860;29;20387;-94
2022/01/26 14:52:47;;;;;;;67.68;30.10;;;5.90;99.90;;;;;;4899740;29;20071;-93
2022/01/26 14:55:11;;;;;;;83.00;31.67;;;5.30;99.90;;;;;;4901675;29;20477;-94
2022/01/26 15:00:47;;;;;;;66.55;30.02;;;5.70;99.90;;;;;;4898086;29;20115;-95
2022/01/26 15:12:09;;;;;;;65.57;30.05;;;5.90;99.90;;;;;;4907484;29;20047;-94
2022/01/26 15:20:28;;;;;;;74.90;30.23;;;4.80;99.90;;;;;;4911762;29;20044;-94
2022/01/26 15:30:37;;;;;;;71.22;31.17;;;4.80;99.90;;;;;;4897533;29;20047;-95
2022/01/26 15:41:28;;;;;;;74.70;30.45;;;4.60;99.90;;;;;;4913418;29;20060;-95
2022/01/26 15:44:07;;;;;;;75.43;30.17;;;4.80;99.90;;;;;;4897392;29;20452;-95
2022/01/26 15:57:32;;;;;;;75.80;30.23;;;4.80;99.90;;;;;;4897527;29;20518;-94
2022/01/26 16:05:42;;;;;;;78.40;30.95;;;5.80;99.90;;;;;;4895537;29;20055;-95
2022/01/26 16:08:26;;;;;;;76.55;30.08;;;4.90;99.90;;;;;;4897010;29;20497;-95
2022/01/26 16:21:22;;;;;;;78.57;31.23;;;4.90;99.90;;;;;;4899194;29;20059;-95